sensor_id;sensor_type;location;lat;lon;timestamp;P1;durP1;ratioP1;P2;durP2;ratioP2
17520;SDS011;8878;-33.370;-70.552;2023-04-12T00:00:04;2.00;;;1.13;;
17520;SDS011;8878;-33.370;-70.552;2023-04-12T00:02:37;4.80;;;1.40;;
17520;SDS011;8878;-33.370;-70.552;2023-04-12T00:05:07;2.78;;;1.08;;
17520;SDS011;8878;-33.370;-70.552;2023-04-12T00:07:36;4.78;;;1.42;;
17520;SDS011;8878;-33.370;-70.552;2023-04-12T00:10:07;1.80;;;0.80;;
17520;SDS011;8878;-33.370;-70.552;2023-04-12T00:12:39;1.23;;;0.88;;
17520;SDS011;8878;-33.370;-70.552;2023-04-12T00:15:09;3.00;;;1.20;;
17520;SDS011;8878;-33.370;-70.552;2023-04-12T00:17:38;1.48;;;1.05;;
17520;SDS011;8878;-33.370;-70.552;2023-04-12T00:20:08;5.07;;;1.65;;
17520;SDS011;8878;-33.370;-70.552;2023-04-12T00:22:39;7.07;;;1.30;;
17520;SDS011;8878;-33.370;-70.552;2023-04-12T00:25:08;5.35;;;0.98;;
17520;SDS011;8878;-33.370;-70.552;2023-04-12T00:27:40;3.47;;;1.30;;
17520;SDS011;8878;-33.370;-70.552;2023-04-12T00:30:10;10.68;;;1.85;;
17520;SDS011;8878;-33.370;-70.552;2023-04-12T00:32:40;1.33;;;0.98;;
17520;SDS011;8878;-33.370;-70.552;2023-04-12T00:35:10;0.90;;;0.90;;
17520;SDS011;8878;-33.370;-70.552;2023-04-12T00:37:40;1.33;;;1.02;;
17520;SDS011;8878;-33.370;-70.552;2023-04-12T00:40:09;5.35;;;1.45;;
17520;SDS011;8878;-33.370;-70.552;2023-04-12T00:42:42;1.30;;;0.73;;
17520;SDS011;8878;-33.370;-70.552;2023-04-12T00:45:12;1.48;;;1.00;;
17520;SDS011;8878;-33.370;-70.552;2023-04-12T00:47:41;4.80;;;1.08;;
17520;SDS011;8878;-33.370;-70.552;2023-04-12T00:50:11;2.60;;;1.10;;
17520;SDS011;8878;-33.370;-70.552;2023-04-12T00:52:41;1.05;;;1.02;;
17520;SDS011;8878;-33.370;-70.552;2023-04-12T00:55:10;2.33;;;1.15;;
17520;SDS011;8878;-33.370;-70.552;2023-04-12T00:57:42;4.57;;;1.05;;
17520;SDS011;8878;-33.370;-70.552;2023-04-12T01:00:12;2.78;;;0.93;;
17520;SDS011;8878;-33.370;-70.552;2023-04-12T01:02:43;7.30;;;1.35;;
17520;SDS011;8878;-33.370;-70.552;2023-04-12T01:05:15;5.95;;;1.17;;
17520;SDS011;8878;-33.370;-70.552;2023-04-12T01:07:48;6.28;;;1.40;;
17520;SDS011;8878;-33.370;-70.552;2023-04-12T01:10:25;0.65;;;0.65;;
17520;SDS011;8878;-33.370;-70.552;2023-04-12T01:13:07;4.68;;;1.23;;
17520;SDS011;8878;-33.370;-70.552;2023-04-12T01:15:45;2.53;;;0.95;;
17520;SDS011;8878;-33.370;-70.552;2023-04-12T01:18:18;1.45;;;1.10;;
17520;SDS011;8878;-33.370;-70.552;2023-04-12T01:20:50;3.03;;;1.10;;
17520;SDS011;8878;-33.370;-70.552;2023-04-12T01:23:42;5.05;;;1.27;;
17520;SDS011;8878;-33.370;-70.552;2023-04-12T01:26:30;3.42;;;1.33;;
17520;SDS011;8878;-33.370;-70.552;2023-04-12T01:29:09;1.35;;;0.93;;
17520;SDS011;8878;-33.370;-70.552;2023-04-12T01:31:46;3.42;;;1.50;;
17520;SDS011;8878;-33.370;-70.552;2023-04-12T01:34:19;2.33;;;1.30;;
17520;SDS011;8878;-33.370;-70.552;2023-04-12T01:36:51;1.27;;;1.00;;
17520;SDS011;8878;-33.370;-70.552;2023-04-12T01:39:23;1.83;;;1.20;;
17520;SDS011;8878;-33.370;-70.552;2023-04-12T01:41:54;4.57;;;1.33;;
17520;SDS011;8878;-33.370;-70.552;2023-04-12T01:44:25;3.42;;;1.60;;
17520;SDS011;8878;-33.370;-70.552;2023-04-12T01:46:54;2.20;;;1.20;;
17520;SDS011;8878;-33.370;-70.552;2023-04-12T01:49:24;1.95;;;1.48;;
17520;SDS011;8878;-33.370;-70.552;2023-04-12T01:52:01;0.90;;;0.80;;
17520;SDS011;8878;-33.370;-70.552;2023-04-12T01:54:37;6.28;;;1.48;;
17520;SDS011;8878;-33.370;-70.552;2023-04-12T01:57:09;4.90;;;1.77;;
17520;SDS011;8878;-33.370;-70.552;2023-04-12T01:59:42;10.10;;;1.80;;
17520;SDS011;8878;-33.370;-70.552;2023-04-12T02:02:14;1.10;;;1.05;;
17520;SDS011;8878;-33.370;-70.552;2023-04-12T02:04:44;5.30;;;1.65;;
17520;SDS011;8878;-33.370;-70.552;2023-04-12T02:07:15;2.58;;;1.50;;
17520;SDS011;8878;-33.370;-70.552;2023-04-12T02:09:45;1.52;;;1.35;;
17520;SDS011;8878;-33.370;-70.552;2023-04-12T02:12:14;1.65;;;1.25;;
17520;SDS011;8878;-33.370;-70.552;2023-04-12T02:14:46;6.97;;;1.45;;
17520;SDS011;8878;-33.370;-70.552;2023-04-12T02:17:16;4.38;;;1.33;;
17520;SDS011;8878;-33.370;-70.552;2023-04-12T02:19:46;5.40;;;1.77;;
17520;SDS011;8878;-33.370;-70.552;2023-04-12T02:22:15;3.33;;;1.73;;
17520;SDS011;8878;-33.370;-70.552;2023-04-12T02:24:45;5.35;;;1.48;;
17520;SDS011;8878;-33.370;-70.552;2023-04-12T02:27:14;1.77;;;1.55;;
17520;SDS011;8878;-33.370;-70.552;2023-04-12T02:29:46;1.10;;;1.10;;
17520;SDS011;8878;-33.370;-70.552;2023-04-12T02:32:15;1.48;;;1.35;;
17520;SDS011;8878;-33.370;-70.552;2023-04-12T02:34:45;1.75;;;1.20;;
17520;SDS011;8878;-33.370;-70.552;2023-04-12T02:37:16;4.35;;;1.42;;
17520;SDS011;8878;-33.370;-70.552;2023-04-12T02:39:46;4.38;;;1.63;;
17520;SDS011;8878;-33.370;-70.552;2023-04-12T02:42:16;7.60;;;1.50;;
17520;SDS011;8878;-33.370;-70.552;2023-04-12T02:44:47;2.40;;;1.27;;
17520;SDS011;8878;-33.370;-70.552;2023-04-12T02:47:16;2.05;;;1.42;;
17520;SDS011;8878;-33.370;-70.552;2023-04-12T02:49:46;5.20;;;1.45;;
17520;SDS011;8878;-33.370;-70.552;2023-04-12T02:52:15;2.72;;;1.58;;
17520;SDS011;8878;-33.370;-70.552;2023-04-12T02:54:45;2.85;;;1.38;;
17520;SDS011;8878;-33.370;-70.552;2023-04-12T02:57:15;3.28;;;1.50;;
17520;SDS011;8878;-33.370;-70.552;2023-04-12T02:59:47;3.47;;;1.50;;
17520;SDS011;8878;-33.370;-70.552;2023-04-12T03:02:19;4.13;;;1.33;;
17520;SDS011;8878;-33.370;-70.552;2023-04-12T03:04:50;7.88;;;1.80;;
17520;SDS011;8878;-33.370;-70.552;2023-04-12T03:07:19;6.00;;;1.50;;
17520;SDS011;8878;-33.370;-70.552;2023-04-12T03:09:49;6.82;;;1.40;;
17520;SDS011;8878;-33.370;-70.552;2023-04-12T03:12:19;2.20;;;1.30;;
17520;SDS011;8878;-33.370;-70.552;2023-04-12T03:14:50;2.92;;;1.60;;
17520;SDS011;8878;-33.370;-70.552;2023-04-12T03:17:19;2.65;;;1.58;;
17520;SDS011;8878;-33.370;-70.552;2023-04-12T03:19:49;12.32;;;1.90;;
17520;SDS011;8878;-33.370;-70.552;2023-04-12T03:22:19;1.42;;;1.13;;
17520;SDS011;8878;-33.370;-70.552;2023-04-12T03:24:50;7.13;;;1.77;;
17520;SDS011;8878;-33.370;-70.552;2023-04-12T03:27:21;5.70;;;1.60;;
17520;SDS011;8878;-33.370;-70.552;2023-04-12T03:29:53;5.00;;;1.05;;
17520;SDS011;8878;-33.370;-70.552;2023-04-12T03:32:23;2.83;;;1.50;;
17520;SDS011;8878;-33.370;-70.552;2023-04-12T03:34:52;1.52;;;1.15;;
17520;SDS011;8878;-33.370;-70.552;2023-04-12T03:37:22;6.18;;;2.00;;
17520;SDS011;8878;-33.370;-70.552;2023-04-12T03:39:51;1.17;;;1.08;;
17520;SDS011;8878;-33.370;-70.552;2023-04-12T03:42:21;3.22;;;1.42;;
17520;SDS011;8878;-33.370;-70.552;2023-04-12T03:44:52;2.85;;;1.35;;
17520;SDS011;8878;-33.370;-70.552;2023-04-12T03:47:21;3.05;;;1.55;;
17520;SDS011;8878;-33.370;-70.552;2023-04-12T03:49:53;1.58;;;1.08;;
17520;SDS011;8878;-33.370;-70.552;2023-04-12T03:52:23;2.58;;;1.60;;
17520;SDS011;8878;-33.370;-70.552;2023-04-12T03:54:52;2.42;;;1.60;;
17520;SDS011;8878;-33.370;-70.552;2023-04-12T03:57:21;2.38;;;1.10;;
17520;SDS011;8878;-33.370;-70.552;2023-04-12T03:59:53;4.95;;;1.70;;
17520;SDS011;8878;-33.370;-70.552;2023-04-12T04:02:22;3.05;;;1.00;;
17520;SDS011;8878;-33.370;-70.552;2023-04-12T04:04:54;3.45;;;1.17;;
17520;SDS011;8878;-33.370;-70.552;2023-04-12T04:07:23;3.90;;;1.23;;
17520;SDS011;8878;-33.370;-70.552;2023-04-12T04:09:53;2.95;;;1.30;;
17520;SDS011;8878;-33.370;-70.552;2023-04-12T04:12:22;1.42;;;1.20;;
17520;SDS011;8878;-33.370;-70.552;2023-04-12T04:14:54;1.75;;;1.08;;
17520;SDS011;8878;-33.370;-70.552;2023-04-12T04:17:23;3.53;;;1.77;;
17520;SDS011;8878;-33.370;-70.552;2023-04-12T04:19:53;2.45;;;1.13;;
17520;SDS011;8878;-33.370;-70.552;2023-04-12T04:22:22;9.52;;;1.77;;
17520;SDS011;8878;-33.370;-70.552;2023-04-12T04:24:54;1.65;;;1.10;;
17520;SDS011;8878;-33.370;-70.552;2023-04-12T04:27:23;4.25;;;1.75;;
17520;SDS011;8878;-33.370;-70.552;2023-04-12T04:30:00;7.60;;;1.10;;
17520;SDS011;8878;-33.370;-70.552;2023-04-12T04:32:31;1.73;;;1.40;;
17520;SDS011;8878;-33.370;-70.552;2023-04-12T04:35:00;1.77;;;0.90;;
17520;SDS011;8878;-33.370;-70.552;2023-04-12T04:37:30;2.10;;;1.27;;
17520;SDS011;8878;-33.370;-70.552;2023-04-12T04:40:01;4.13;;;1.10;;
17520;SDS011;8878;-33.370;-70.552;2023-04-12T04:42:33;2.72;;;1.15;;
17520;SDS011;8878;-33.370;-70.552;2023-04-12T04:45:06;0.95;;;0.88;;
17520;SDS011;8878;-33.370;-70.552;2023-04-12T04:47:39;1.13;;;1.02;;
17520;SDS011;8878;-33.370;-70.552;2023-04-12T04:50:09;1.73;;;1.42;;
17520;SDS011;8878;-33.370;-70.552;2023-04-12T04:52:38;1.95;;;0.90;;
17520;SDS011;8878;-33.370;-70.552;2023-04-12T04:55:08;1.15;;;0.88;;
17520;SDS011;8878;-33.370;-70.552;2023-04-12T04:57:37;5.22;;;0.98;;
17520;SDS011;8878;-33.370;-70.552;2023-04-12T05:00:09;2.45;;;0.82;;
17520;SDS011;8878;-33.370;-70.552;2023-04-12T05:02:39;4.55;;;0.77;;
17520;SDS011;8878;-33.370;-70.552;2023-04-12T05:05:10;0.83;;;0.50;;
17520;SDS011;8878;-33.370;-70.552;2023-04-12T05:07:40;1.00;;;0.90;;
17520;SDS011;8878;-33.370;-70.552;2023-04-12T05:10:10;1.40;;;1.25;;
17520;SDS011;8878;-33.370;-70.552;2023-04-12T05:12:39;1.42;;;0.60;;
17520;SDS011;8878;-33.370;-70.552;2023-04-12T05:15:11;1.25;;;0.70;;
17520;SDS011;8878;-33.370;-70.552;2023-04-12T05:17:40;2.72;;;0.88;;
17520;SDS011;8878;-33.370;-70.552;2023-04-12T05:20:10;0.93;;;0.93;;
17520;SDS011;8878;-33.370;-70.552;2023-04-12T05:22:39;0.98;;;0.70;;
17520;SDS011;8878;-33.370;-70.552;2023-04-12T05:25:08;0.83;;;0.70;;
17520;SDS011;8878;-33.370;-70.552;2023-04-12T05:27:38;3.50;;;0.70;;
17520;SDS011;8878;-33.370;-70.552;2023-04-12T05:30:08;0.60;;;0.60;;
17520;SDS011;8878;-33.370;-70.552;2023-04-12T05:32:39;0.93;;;0.63;;
17520;SDS011;8878;-33.370;-70.552;2023-04-12T05:35:08;1.40;;;0.57;;
17520;SDS011;8878;-33.370;-70.552;2023-04-12T05:37:38;1.60;;;0.98;;
17520;SDS011;8878;-33.370;-70.552;2023-04-12T05:40:07;3.13;;;0.82;;
17520;SDS011;8878;-33.370;-70.552;2023-04-12T05:42:37;0.87;;;0.70;;
17520;SDS011;8878;-33.370;-70.552;2023-04-12T05:45:07;1.35;;;1.02;;
17520;SDS011;8878;-33.370;-70.552;2023-04-12T05:47:37;1.87;;;1.07;;
17520;SDS011;8878;-33.370;-70.552;2023-04-12T05:50:08;1.10;;;1.00;;
17520;SDS011;8878;-33.370;-70.552;2023-04-12T05:52:39;7.43;;;1.10;;
17520;SDS011;8878;-33.370;-70.552;2023-04-12T05:55:09;2.20;;;1.17;;
17520;SDS011;8878;-33.370;-70.552;2023-04-12T05:57:38;1.47;;;1.00;;
17520;SDS011;8878;-33.370;-70.552;2023-04-12T06:00:07;1.40;;;0.83;;
17520;SDS011;8878;-33.370;-70.552;2023-04-12T06:02:40;1.10;;;0.90;;
17520;SDS011;8878;-33.370;-70.552;2023-04-12T06:05:09;1.70;;;1.47;;
17520;SDS011;8878;-33.370;-70.552;2023-04-12T06:07:39;3.40;;;1.13;;
17520;SDS011;8878;-33.370;-70.552;2023-04-12T06:10:13;2.40;;;1.13;;
17520;SDS011;8878;-33.370;-70.552;2023-04-12T06:12:43;1.27;;;1.07;;
17520;SDS011;8878;-33.370;-70.552;2023-04-12T06:15:12;12.03;;;1.47;;
17520;SDS011;8878;-33.370;-70.552;2023-04-12T06:17:43;1.20;;;1.10;;
17520;SDS011;8878;-33.370;-70.552;2023-04-12T06:20:13;10.37;;;1.43;;
17520;SDS011;8878;-33.370;-70.552;2023-04-12T06:22:42;3.53;;;1.48;;
17520;SDS011;8878;-33.370;-70.552;2023-04-12T06:25:13;2.17;;;1.35;;
17520;SDS011;8878;-33.370;-70.552;2023-04-12T06:27:42;1.70;;;1.40;;
17520;SDS011;8878;-33.370;-70.552;2023-04-12T06:30:12;2.70;;;1.15;;
17520;SDS011;8878;-33.370;-70.552;2023-04-12T06:32:43;3.93;;;0.80;;
17520;SDS011;8878;-33.370;-70.552;2023-04-12T06:35:12;1.20;;;0.87;;
17520;SDS011;8878;-33.370;-70.552;2023-04-12T06:37:42;3.80;;;1.30;;
17520;SDS011;8878;-33.370;-70.552;2023-04-12T06:40:11;6.27;;;1.10;;
17520;SDS011;8878;-33.370;-70.552;2023-04-12T06:42:41;4.28;;;1.30;;
17520;SDS011;8878;-33.370;-70.552;2023-04-12T06:45:10;2.97;;;1.00;;
17520;SDS011;8878;-33.370;-70.552;2023-04-12T06:47:39;1.30;;;1.20;;
17520;SDS011;8878;-33.370;-70.552;2023-04-12T06:50:11;2.53;;;1.20;;
17520;SDS011;8878;-33.370;-70.552;2023-04-12T06:52:40;1.27;;;1.13;;
17520;SDS011;8878;-33.370;-70.552;2023-04-12T06:55:09;2.40;;;1.30;;
17520;SDS011;8878;-33.370;-70.552;2023-04-12T06:57:40;1.40;;;1.17;;
17520;SDS011;8878;-33.370;-70.552;2023-04-12T07:00:12;5.23;;;1.40;;
17520;SDS011;8878;-33.370;-70.552;2023-04-12T07:02:41;2.00;;;1.27;;
17520;SDS011;8878;-33.370;-70.552;2023-04-12T07:05:13;2.47;;;1.07;;
17520;SDS011;8878;-33.370;-70.552;2023-04-12T07:07:43;3.33;;;1.27;;
17520;SDS011;8878;-33.370;-70.552;2023-04-12T07:10:12;2.20;;;1.53;;
17520;SDS011;8878;-33.370;-70.552;2023-04-12T07:12:42;2.43;;;1.03;;
17520;SDS011;8878;-33.370;-70.552;2023-04-12T07:15:11;1.73;;;1.40;;
17520;SDS011;8878;-33.370;-70.552;2023-04-12T07:17:41;5.13;;;1.30;;
17520;SDS011;8878;-33.370;-70.552;2023-04-12T07:20:12;1.70;;;0.93;;
17520;SDS011;8878;-33.370;-70.552;2023-04-12T07:22:43;4.27;;;1.07;;
17520;SDS011;8878;-33.370;-70.552;2023-04-12T07:25:14;0.87;;;0.83;;
17520;SDS011;8878;-33.370;-70.552;2023-04-12T07:27:44;2.50;;;1.47;;
17520;SDS011;8878;-33.370;-70.552;2023-04-12T07:30:13;3.03;;;1.13;;
17520;SDS011;8878;-33.370;-70.552;2023-04-12T07:32:43;2.40;;;0.80;;
17520;SDS011;8878;-33.370;-70.552;2023-04-12T07:35:15;1.30;;;1.20;;
17520;SDS011;8878;-33.370;-70.552;2023-04-12T07:37:45;1.00;;;1.00;;
17520;SDS011;8878;-33.370;-70.552;2023-04-12T07:40:14;10.10;;;1.33;;
17520;SDS011;8878;-33.370;-70.552;2023-04-12T07:42:44;0.90;;;0.90;;
17520;SDS011;8878;-33.370;-70.552;2023-04-12T07:45:13;1.83;;;1.10;;
17520;SDS011;8878;-33.370;-70.552;2023-04-12T07:47:42;2.53;;;1.10;;
17520;SDS011;8878;-33.370;-70.552;2023-04-12T07:50:12;4.80;;;1.27;;
17520;SDS011;8878;-33.370;-70.552;2023-04-12T07:52:46;1.07;;;0.97;;
17520;SDS011;8878;-33.370;-70.552;2023-04-12T07:55:16;1.23;;;0.90;;
17520;SDS011;8878;-33.370;-70.552;2023-04-12T07:57:45;1.30;;;1.20;;
17520;SDS011;8878;-33.370;-70.552;2023-04-12T08:00:15;0.93;;;0.90;;
17520;SDS011;8878;-33.370;-70.552;2023-04-12T08:02:45;1.73;;;1.17;;
17520;SDS011;8878;-33.370;-70.552;2023-04-12T08:05:16;1.10;;;0.90;;
17520;SDS011;8878;-33.370;-70.552;2023-04-12T08:07:45;3.50;;;1.03;;
17520;SDS011;8878;-33.370;-70.552;2023-04-12T08:10:15;2.53;;;0.97;;
17520;SDS011;8878;-33.370;-70.552;2023-04-12T08:12:44;1.70;;;1.30;;
17520;SDS011;8878;-33.370;-70.552;2023-04-12T08:15:14;1.87;;;1.03;;
17520;SDS011;8878;-33.370;-70.552;2023-04-12T08:17:44;2.37;;;1.10;;
17520;SDS011;8878;-33.370;-70.552;2023-04-12T08:20:14;1.30;;;1.17;;
17520;SDS011;8878;-33.370;-70.552;2023-04-12T08:22:46;1.53;;;0.90;;
17520;SDS011;8878;-33.370;-70.552;2023-04-12T08:25:17;1.17;;;0.90;;
17520;SDS011;8878;-33.370;-70.552;2023-04-12T08:27:47;3.53;;;1.50;;
17520;SDS011;8878;-33.370;-70.552;2023-04-12T08:30:17;1.17;;;0.93;;
17520;SDS011;8878;-33.370;-70.552;2023-04-12T08:32:51;4.47;;;1.47;;
17520;SDS011;8878;-33.370;-70.552;2023-04-12T08:35:22;1.40;;;0.90;;
17520;SDS011;8878;-33.370;-70.552;2023-04-12T08:37:52;1.37;;;1.03;;
17520;SDS011;8878;-33.370;-70.552;2023-04-12T08:40:21;1.17;;;0.97;;
17520;SDS011;8878;-33.370;-70.552;2023-04-12T08:42:51;5.67;;;1.70;;
17520;SDS011;8878;-33.370;-70.552;2023-04-12T08:45:21;2.03;;;1.63;;
17520;SDS011;8878;-33.370;-70.552;2023-04-12T08:47:56;2.10;;;1.27;;
17520;SDS011;8878;-33.370;-70.552;2023-04-12T08:50:29;1.23;;;1.10;;
17520;SDS011;8878;-33.370;-70.552;2023-04-12T08:52:59;3.67;;;1.17;;
17520;SDS011;8878;-33.370;-70.552;2023-04-12T08:55:28;1.90;;;1.30;;
17520;SDS011;8878;-33.370;-70.552;2023-04-12T08:57:57;2.77;;;1.87;;
17520;SDS011;8878;-33.370;-70.552;2023-04-12T09:00:32;1.47;;;1.10;;
17520;SDS011;8878;-33.370;-70.552;2023-04-12T09:03:04;0.77;;;0.77;;
17520;SDS011;8878;-33.370;-70.552;2023-04-12T09:05:36;1.30;;;1.17;;
17520;SDS011;8878;-33.370;-70.552;2023-04-12T09:08:06;1.03;;;0.87;;
17520;SDS011;8878;-33.370;-70.552;2023-04-12T09:10:36;2.90;;;1.10;;
17520;SDS011;8878;-33.370;-70.552;2023-04-12T09:13:08;3.23;;;0.90;;
17520;SDS011;8878;-33.370;-70.552;2023-04-12T09:15:46;3.20;;;1.37;;
17520;SDS011;8878;-33.370;-70.552;2023-04-12T09:18:17;2.37;;;1.27;;
17520;SDS011;8878;-33.370;-70.552;2023-04-12T09:20:49;5.00;;;1.20;;
17520;SDS011;8878;-33.370;-70.552;2023-04-12T09:23:32;1.43;;;1.00;;
17520;SDS011;8878;-33.370;-70.552;2023-04-12T09:26:04;1.57;;;1.20;;
17520;SDS011;8878;-33.370;-70.552;2023-04-12T09:28:34;1.07;;;1.00;;
17520;SDS011;8878;-33.370;-70.552;2023-04-12T09:31:03;1.97;;;1.20;;
17520;SDS011;8878;-33.370;-70.552;2023-04-12T09:33:43;1.77;;;1.03;;
17520;SDS011;8878;-33.370;-70.552;2023-04-12T09:36:15;1.20;;;1.10;;
17520;SDS011;8878;-33.370;-70.552;2023-04-12T09:38:57;1.73;;;1.40;;
17520;SDS011;8878;-33.370;-70.552;2023-04-12T09:41:28;2.17;;;1.47;;
17520;SDS011;8878;-33.370;-70.552;2023-04-12T09:43:57;0.90;;;0.90;;
17520;SDS011;8878;-33.370;-70.552;2023-04-12T09:46:27;1.87;;;1.13;;
17520;SDS011;8878;-33.370;-70.552;2023-04-12T09:48:57;1.23;;;1.10;;
17520;SDS011;8878;-33.370;-70.552;2023-04-12T09:51:30;1.10;;;1.10;;
17520;SDS011;8878;-33.370;-70.552;2023-04-12T09:54:01;2.97;;;1.20;;
17520;SDS011;8878;-33.370;-70.552;2023-04-12T09:56:31;1.30;;;1.20;;
17520;SDS011;8878;-33.370;-70.552;2023-04-12T09:59:04;0.90;;;0.90;;
17520;SDS011;8878;-33.370;-70.552;2023-04-12T10:01:35;1.33;;;1.23;;
17520;SDS011;8878;-33.370;-70.552;2023-04-12T10:04:06;2.93;;;1.27;;
17520;SDS011;8878;-33.370;-70.552;2023-04-12T10:06:38;2.80;;;1.47;;
17520;SDS011;8878;-33.370;-70.552;2023-04-12T10:09:08;1.30;;;1.20;;
17520;SDS011;8878;-33.370;-70.552;2023-04-12T10:11:39;2.37;;;1.00;;
17520;SDS011;8878;-33.370;-70.552;2023-04-12T10:14:12;2.63;;;1.40;;
17520;SDS011;8878;-33.370;-70.552;2023-04-12T10:16:42;1.60;;;1.47;;
17520;SDS011;8878;-33.370;-70.552;2023-04-12T10:19:12;1.13;;;1.10;;
17520;SDS011;8878;-33.370;-70.552;2023-04-12T10:21:44;4.27;;;1.47;;
17520;SDS011;8878;-33.370;-70.552;2023-04-12T10:24:13;2.20;;;1.37;;
17520;SDS011;8878;-33.370;-70.552;2023-04-12T10:26:44;2.30;;;1.10;;
17520;SDS011;8878;-33.370;-70.552;2023-04-12T10:29:24;3.27;;;1.20;;
17520;SDS011;8878;-33.370;-70.552;2023-04-12T10:31:55;1.30;;;1.20;;
17520;SDS011;8878;-33.370;-70.552;2023-04-12T10:34:28;2.80;;;1.40;;
17520;SDS011;8878;-33.370;-70.552;2023-04-12T10:37:00;6.00;;;1.50;;
17520;SDS011;8878;-33.370;-70.552;2023-04-12T10:39:36;2.30;;;1.37;;
17520;SDS011;8878;-33.370;-70.552;2023-04-12T10:42:23;7.30;;;1.40;;
17520;SDS011;8878;-33.370;-70.552;2023-04-12T10:44:54;1.83;;;1.20;;
17520;SDS011;8878;-33.370;-70.552;2023-04-12T10:50:28;2.53;;;1.17;;
17520;SDS011;8878;-33.370;-70.552;2023-04-12T10:55:52;1.30;;;1.20;;
17520;SDS011;8878;-33.370;-70.552;2023-04-12T11:01:26;1.67;;;1.20;;
17520;SDS011;8878;-33.370;-70.552;2023-04-12T11:04:07;1.37;;;1.23;;
17520;SDS011;8878;-33.370;-70.552;2023-04-12T11:06:48;2.37;;;1.63;;
17520;SDS011;8878;-33.370;-70.552;2023-04-12T11:09:36;4.33;;;0.93;;
17520;SDS011;8878;-33.370;-70.552;2023-04-12T11:12:12;4.60;;;1.20;;
17520;SDS011;8878;-33.370;-70.552;2023-04-12T11:14:43;2.40;;;1.80;;
17520;SDS011;8878;-33.370;-70.552;2023-04-12T11:17:20;1.43;;;1.33;;
17520;SDS011;8878;-33.370;-70.552;2023-04-12T11:19:54;1.33;;;1.10;;
17520;SDS011;8878;-33.370;-70.552;2023-04-12T11:22:25;2.27;;;1.40;;
17520;SDS011;8878;-33.370;-70.552;2023-04-12T11:24:58;1.77;;;1.43;;
17520;SDS011;8878;-33.370;-70.552;2023-04-12T11:27:28;4.47;;;1.50;;
17520;SDS011;8878;-33.370;-70.552;2023-04-12T11:29:59;3.53;;;1.30;;
17520;SDS011;8878;-33.370;-70.552;2023-04-12T11:32:30;1.87;;;1.43;;
17520;SDS011;8878;-33.370;-70.552;2023-04-12T11:35:01;4.23;;;1.87;;
17520;SDS011;8878;-33.370;-70.552;2023-04-12T11:37:31;1.37;;;1.27;;
17520;SDS011;8878;-33.370;-70.552;2023-04-12T11:40:03;5.27;;;1.77;;
17520;SDS011;8878;-33.370;-70.552;2023-04-12T11:42:34;2.53;;;1.53;;
17520;SDS011;8878;-33.370;-70.552;2023-04-12T11:45:06;6.70;;;1.40;;
17520;SDS011;8878;-33.370;-70.552;2023-04-12T11:47:41;11.00;;;1.50;;
17520;SDS011;8878;-33.370;-70.552;2023-04-12T11:50:10;5.17;;;1.60;;
17520;SDS011;8878;-33.370;-70.552;2023-04-12T11:52:40;2.73;;;1.30;;
17520;SDS011;8878;-33.370;-70.552;2023-04-12T11:55:11;4.20;;;2.33;;
17520;SDS011;8878;-33.370;-70.552;2023-04-12T11:57:40;2.67;;;1.30;;
17520;SDS011;8878;-33.370;-70.552;2023-04-12T12:00:10;3.13;;;1.63;;
17520;SDS011;8878;-33.370;-70.552;2023-04-12T12:02:40;4.23;;;1.70;;
17520;SDS011;8878;-33.370;-70.552;2023-04-12T12:05:10;6.77;;;2.40;;
17520;SDS011;8878;-33.370;-70.552;2023-04-12T12:07:39;2.80;;;1.70;;
17520;SDS011;8878;-33.370;-70.552;2023-04-12T12:10:09;9.53;;;1.63;;
17520;SDS011;8878;-33.370;-70.552;2023-04-12T12:12:42;4.57;;;1.83;;
17520;SDS011;8878;-33.370;-70.552;2023-04-12T12:15:13;5.13;;;1.93;;
17520;SDS011;8878;-33.370;-70.552;2023-04-12T12:17:43;1.50;;;1.40;;
17520;SDS011;8878;-33.370;-70.552;2023-04-12T12:20:18;4.33;;;2.63;;
17520;SDS011;8878;-33.370;-70.552;2023-04-12T12:22:49;8.73;;;2.80;;
17520;SDS011;8878;-33.370;-70.552;2023-04-12T12:25:20;7.80;;;3.03;;
17520;SDS011;8878;-33.370;-70.552;2023-04-12T12:27:55;8.03;;;2.73;;
17520;SDS011;8878;-33.370;-70.552;2023-04-12T12:30:25;9.07;;;3.07;;
17520;SDS011;8878;-33.370;-70.552;2023-04-12T12:32:58;10.10;;;4.47;;
17520;SDS011;8878;-33.370;-70.552;2023-04-12T12:35:28;14.47;;;5.53;;
17520;SDS011;8878;-33.370;-70.552;2023-04-12T12:38:05;26.23;;;7.28;;
17520;SDS011;8878;-33.370;-70.552;2023-04-12T12:40:38;27.67;;;8.97;;
17520;SDS011;8878;-33.370;-70.552;2023-04-12T12:43:08;26.90;;;7.82;;
17520;SDS011;8878;-33.370;-70.552;2023-04-12T12:45:46;16.60;;;5.60;;
17520;SDS011;8878;-33.370;-70.552;2023-04-12T12:48:15;14.33;;;6.03;;
17520;SDS011;8878;-33.370;-70.552;2023-04-12T12:50:46;11.98;;;4.20;;
17520;SDS011;8878;-33.370;-70.552;2023-04-12T12:53:15;16.90;;;4.50;;
17520;SDS011;8878;-33.370;-70.552;2023-04-12T12:55:46;15.15;;;5.22;;
17520;SDS011;8878;-33.370;-70.552;2023-04-12T12:58:15;16.25;;;5.32;;
17520;SDS011;8878;-33.370;-70.552;2023-04-12T13:00:45;11.20;;;4.45;;
17520;SDS011;8878;-33.370;-70.552;2023-04-12T13:03:14;12.18;;;4.97;;
17520;SDS011;8878;-33.370;-70.552;2023-04-12T13:05:43;14.90;;;5.07;;
17520;SDS011;8878;-33.370;-70.552;2023-04-12T13:08:13;12.25;;;5.70;;
17520;SDS011;8878;-33.370;-70.552;2023-04-12T13:10:42;17.95;;;6.22;;
17520;SDS011;8878;-33.370;-70.552;2023-04-12T13:13:14;15.35;;;5.47;;
17520;SDS011;8878;-33.370;-70.552;2023-04-12T13:15:43;16.42;;;4.85;;
17520;SDS011;8878;-33.370;-70.552;2023-04-12T13:18:13;13.32;;;5.13;;
17520;SDS011;8878;-33.370;-70.552;2023-04-12T13:20:42;11.00;;;4.60;;
17520;SDS011;8878;-33.370;-70.552;2023-04-12T13:23:12;11.57;;;5.13;;
17520;SDS011;8878;-33.370;-70.552;2023-04-12T13:25:42;11.43;;;4.70;;
17520;SDS011;8878;-33.370;-70.552;2023-04-12T13:28:13;11.75;;;3.92;;
17520;SDS011;8878;-33.370;-70.552;2023-04-12T13:30:43;14.93;;;4.03;;
17520;SDS011;8878;-33.370;-70.552;2023-04-12T13:33:13;10.10;;;4.97;;
17520;SDS011;8878;-33.370;-70.552;2023-04-12T13:35:42;24.08;;;6.22;;
17520;SDS011;8878;-33.370;-70.552;2023-04-12T13:38:12;13.68;;;6.25;;
17520;SDS011;8878;-33.370;-70.552;2023-04-12T13:40:41;5.47;;;3.63;;
17520;SDS011;8878;-33.370;-70.552;2023-04-12T13:43:10;7.95;;;3.58;;
17520;SDS011;8878;-33.370;-70.552;2023-04-12T13:45:41;8.73;;;3.65;;
17520;SDS011;8878;-33.370;-70.552;2023-04-12T13:48:11;6.90;;;3.35;;
17520;SDS011;8878;-33.370;-70.552;2023-04-12T13:50:40;8.02;;;4.13;;
17520;SDS011;8878;-33.370;-70.552;2023-04-12T13:53:10;10.50;;;4.72;;
17520;SDS011;8878;-33.370;-70.552;2023-04-12T13:55:39;7.80;;;4.00;;
17520;SDS011;8878;-33.370;-70.552;2023-04-12T13:58:09;12.02;;;4.15;;
17520;SDS011;8878;-33.370;-70.552;2023-04-12T14:00:40;11.93;;;4.40;;
17520;SDS011;8878;-33.370;-70.552;2023-04-12T14:03:09;9.73;;;5.10;;
17520;SDS011;8878;-33.370;-70.552;2023-04-12T14:05:39;20.15;;;5.47;;
17520;SDS011;8878;-33.370;-70.552;2023-04-12T14:08:10;12.55;;;4.65;;
17520;SDS011;8878;-33.370;-70.552;2023-04-12T14:10:40;10.68;;;4.70;;
17520;SDS011;8878;-33.370;-70.552;2023-04-12T14:13:09;7.65;;;4.68;;
17520;SDS011;8878;-33.370;-70.552;2023-04-12T14:15:40;7.82;;;4.72;;
17520;SDS011;8878;-33.370;-70.552;2023-04-12T14:18:10;10.55;;;4.97;;
17520;SDS011;8878;-33.370;-70.552;2023-04-12T14:20:39;8.27;;;4.00;;
17520;SDS011;8878;-33.370;-70.552;2023-04-12T14:23:10;14.73;;;5.68;;
17520;SDS011;8878;-33.370;-70.552;2023-04-12T14:25:40;9.50;;;4.72;;
17520;SDS011;8878;-33.370;-70.552;2023-04-12T14:28:10;10.52;;;4.47;;
17520;SDS011;8878;-33.370;-70.552;2023-04-12T14:30:43;11.20;;;5.25;;
17520;SDS011;8878;-33.370;-70.552;2023-04-12T14:33:15;10.38;;;5.35;;
17520;SDS011;8878;-33.370;-70.552;2023-04-12T14:35:44;13.18;;;5.65;;
17520;SDS011;8878;-33.370;-70.552;2023-04-12T14:38:14;8.48;;;4.90;;
17520;SDS011;8878;-33.370;-70.552;2023-04-12T14:40:43;9.70;;;4.93;;
17520;SDS011;8878;-33.370;-70.552;2023-04-12T14:43:13;14.90;;;6.15;;
17520;SDS011;8878;-33.370;-70.552;2023-04-12T14:45:44;11.77;;;5.55;;
17520;SDS011;8878;-33.370;-70.552;2023-04-12T14:48:13;13.73;;;5.18;;